createdAt,value
2018-03-26T00:01:34.203Z,52.67
2018-03-26T00:04:01.664Z,53.44
2018-03-26T00:06:29.096Z,52.87
2018-03-26T00:08:56.550Z,54.17
2018-03-26T00:11:24.040Z,53.93
2018-03-26T00:13:51.540Z,53.00
2018-03-26T00:16:19.085Z,52.64
2018-03-26T00:18:46.519Z,52.57
2018-03-26T00:21:13.976Z,52.44
2018-03-26T00:23:41.415Z,52.04
2018-03-26T00:26:08.882Z,51.89
2018-03-26T00:28:36.299Z,52.10
2018-03-26T00:31:03.757Z,52.50
2018-03-26T00:33:31.206Z,52.57
2018-03-26T00:35:58.658Z,53.13
2018-03-26T00:38:26.084Z,54.22
2018-03-26T00:40:53.549Z,54.07
2018-03-26T00:43:20.962Z,53.89
2018-03-26T00:45:48.392Z,53.35
2018-03-26T00:48:15.861Z,53.66
2018-03-26T00:50:43.462Z,54.11
2018-03-26T00:53:11.041Z,54.39
2018-03-26T00:55:38.489Z,54.41
2018-03-26T00:58:05.954Z,54.60
2018-03-26T01:00:33.383Z,54.68
2018-03-26T01:03:01.569Z,53.90
2018-03-26T01:05:29.037Z,54.69
2018-03-26T01:07:56.503Z,54.44
2018-03-26T01:10:23.943Z,54.04
2018-03-26T01:12:51.389Z,54.49
2018-03-26T01:15:18.806Z,54.92
2018-03-26T01:17:46.290Z,53.62
2018-03-26T01:20:13.765Z,53.56
2018-03-26T01:22:41.226Z,54.63
2018-03-26T01:25:08.679Z,54.91
2018-03-26T01:27:36.141Z,54.21
2018-03-26T01:30:03.596Z,54.46
2018-03-26T01:32:31.026Z,54.43
2018-03-26T01:34:58.492Z,54.40
2018-03-26T01:37:25.969Z,54.16
2018-03-26T01:39:53.434Z,54.33
2018-03-26T01:42:20.890Z,53.82
2018-03-26T01:44:48.349Z,55.82
2018-03-26T01:47:15.770Z,56.14
2018-03-26T01:49:43.336Z,55.71
2018-03-26T01:52:10.754Z,55.53
2018-03-26T01:54:38.185Z,56.01
2018-03-26T01:57:06.376Z,55.51
2018-03-26T01:59:33.803Z,55.50
2018-03-26T02:02:01.269Z,56.31
2018-03-26T02:04:28.795Z,56.67
2018-03-26T02:06:56.239Z,56.35
2018-03-26T02:09:24.532Z,56.35
2018-03-26T02:11:52.082Z,56.75
2018-03-26T02:14:19.770Z,56.86
2018-03-26T02:16:47.305Z,56.65
2018-03-26T02:19:14.766Z,56.65
2018-03-26T02:21:42.182Z,55.56
2018-03-26T02:24:09.640Z,56.61
2018-03-26T02:26:37.128Z,57.33
2018-03-26T02:29:04.561Z,57.07
2018-03-26T02:31:32.002Z,57.10
2018-03-26T02:33:59.461Z,57.38
2018-03-26T02:36:26.901Z,57.74
2018-03-26T02:38:54.338Z,57.04
2018-03-26T02:41:21.898Z,56.73
2018-03-26T02:43:49.357Z,56.86
2018-03-26T02:46:16.776Z,57.26
2018-03-26T02:48:44.211Z,57.50
2018-03-26T02:51:11.720Z,57.62
2018-03-26T02:53:39.226Z,57.95
2018-03-26T02:56:06.676Z,58.06
2018-03-26T02:58:34.124Z,58.40
2018-03-26T03:01:01.604Z,57.85
2018-03-26T03:03:29.059Z,58.25
2018-03-26T03:05:56.528Z,58.48
2018-03-26T03:08:23.956Z,58.48
2018-03-26T03:10:51.414Z,58.66
2018-03-26T03:13:18.850Z,58.93
2018-03-26T03:15:46.312Z,58.83
2018-03-26T03:18:13.802Z,58.88
2018-03-26T03:20:41.294Z,58.82
2018-03-26T03:23:08.779Z,58.82
2018-03-26T03:25:36.312Z,58.37
2018-03-26T03:28:03.768Z,58.28
2018-03-26T03:30:31.207Z,58.60
2018-03-26T03:32:58.635Z,58.90
2018-03-26T03:35:26.246Z,58.80
2018-03-26T03:37:53.846Z,58.45
2018-03-26T03:40:21.279Z,59.25
2018-03-26T03:42:48.728Z,58.92
2018-03-26T03:45:16.900Z,58.90
2018-03-26T03:47:44.334Z,59.33
2018-03-26T03:50:11.793Z,59.72
2018-03-26T03:52:39.233Z,59.78
2018-03-26T03:55:06.742Z,59.60
2018-03-26T03:57:34.324Z,59.90
2018-03-26T04:00:01.749Z,59.54
2018-03-26T04:02:29.230Z,59.43
2018-03-26T04:04:56.688Z,58.90
2018-03-26T04:07:24.144Z,58.78
2018-03-26T04:09:51.580Z,58.49
2018-03-26T04:12:19.039Z,58.52
2018-03-26T04:14:46.552Z,59.10
2018-03-26T04:17:14.273Z,59.29
2018-03-26T04:19:41.779Z,59.18
2018-03-26T04:22:09.361Z,58.79
2018-03-26T04:24:36.921Z,58.98
2018-03-26T04:27:04.586Z,59.04
2018-03-26T04:29:32.027Z,59.31
2018-03-26T04:31:59.478Z,58.78
2018-03-26T04:34:27.097Z,58.78
2018-03-26T04:36:54.660Z,58.73
2018-03-26T04:39:22.099Z,58.86
2018-03-26T04:41:49.532Z,58.49
2018-03-26T04:44:16.989Z,59.29
2018-03-26T04:46:44.423Z,59.67
2018-03-26T04:49:11.879Z,59.56
2018-03-26T04:51:41.070Z,59.81
2018-03-26T04:54:08.885Z,59.86
2018-03-26T04:56:36.384Z,60.03
2018-03-26T04:59:03.848Z,59.26
2018-03-26T05:01:31.271Z,59.51
2018-03-26T05:03:58.727Z,59.57
2018-03-26T05:06:26.313Z,59.87
2018-03-26T05:08:53.769Z,60.41
2018-03-26T05:11:21.227Z,59.87
2018-03-26T05:13:48.660Z,59.79
2018-03-26T05:16:16.113Z,59.31
2018-03-26T05:18:43.566Z,60.16
2018-03-26T05:21:11.078Z,59.99
2018-03-26T05:23:38.560Z,60.29
2018-03-26T05:26:06.039Z,60.77
2018-03-26T05:28:33.470Z,60.75
2018-03-26T05:31:01.139Z,61.07
2018-03-26T05:33:29.462Z,60.79
2018-03-26T05:35:57.030Z,61.50
2018-03-26T05:38:24.619Z,61.11
2018-03-26T05:40:52.224Z,60.28
2018-03-26T05:43:19.855Z,60.77
2018-03-26T05:45:47.287Z,60.70
2018-03-26T05:48:15.288Z,60.81
2018-03-26T05:50:43.985Z,60.85
2018-03-26T05:53:11.446Z,60.32
2018-03-26T05:55:38.876Z,60.46
2018-03-26T05:58:06.412Z,59.76
2018-03-26T06:00:33.931Z,60.06
2018-03-26T06:03:01.411Z,60.18
2018-03-26T06:05:28.856Z,59.55
2018-03-26T06:07:56.298Z,60.45
2018-03-26T06:10:23.899Z,60.30
2018-03-26T06:12:51.340Z,59.83
2018-03-26T06:15:18.857Z,60.44
2018-03-26T06:17:46.308Z,60.77
2018-03-26T06:20:13.912Z,60.34
2018-03-26T06:22:41.340Z,60.02
2018-03-26T06:25:08.793Z,60.16
2018-03-26T06:27:36.227Z,60.27
2018-03-26T06:30:03.781Z,60.48
2018-03-26T06:32:31.231Z,60.16
2018-03-26T06:34:58.647Z,60.28
2018-03-26T06:37:31.624Z,60.19
2018-03-26T06:39:59.076Z,59.55
2018-03-26T06:42:26.537Z,59.35
2018-03-26T06:44:54.011Z,60.54
2018-03-26T06:47:21.449Z,60.73
2018-03-26T06:49:48.882Z,59.79
2018-03-26T06:52:16.340Z,60.18
2018-03-26T06:54:43.807Z,60.63
2018-03-26T06:57:11.606Z,61.09
2018-03-26T06:59:39.367Z,61.28
2018-03-26T07:02:06.883Z,61.25
2018-03-26T07:04:34.314Z,61.91
2018-03-26T07:07:01.767Z,61.61
2018-03-26T07:09:29.225Z,60.67
2018-03-26T07:11:56.699Z,60.90
2018-03-26T07:14:24.308Z,60.29
2018-03-26T07:16:51.746Z,60.41
2018-03-26T07:19:19.199Z,63.21
2018-03-26T07:21:46.617Z,62.50
2018-03-26T07:24:14.067Z,62.64
2018-03-26T07:26:41.511Z,63.17
2018-03-26T07:29:08.967Z,62.96
2018-03-26T07:31:36.471Z,62.28
2018-03-26T07:34:03.927Z,63.51
2018-03-26T07:36:31.560Z,63.48
2018-03-26T07:38:59.045Z,62.83
2018-03-26T07:41:26.500Z,61.91
2018-03-26T07:43:53.979Z,62.20
2018-03-26T07:46:21.464Z,62.00
2018-03-26T07:48:48.973Z,61.57
2018-03-26T07:51:16.823Z,60.97
2018-03-26T07:53:44.257Z,60.97
2018-03-26T07:56:11.766Z,60.20
2018-03-26T07:58:39.210Z,60.39
2018-03-26T08:01:06.712Z,60.62
2018-03-26T08:03:34.234Z,61.34
2018-03-26T08:06:01.656Z,61.37
2018-03-26T08:08:29.763Z,61.78
2018-03-26T08:10:57.250Z,61.31
2018-03-26T08:13:24.806Z,61.34
2018-03-26T08:15:52.562Z,60.81
2018-03-26T08:18:20.060Z,61.07
2018-03-26T08:20:47.521Z,60.70
2018-03-26T08:23:14.979Z,59.87
2018-03-26T08:25:42.442Z,59.28
2018-03-26T08:28:09.905Z,58.49
2018-03-26T08:30:37.369Z,58.86
2018-03-26T08:33:04.843Z,57.33
2018-03-26T08:35:32.275Z,56.42
2018-03-26T08:37:59.776Z,55.76
2018-03-26T08:40:27.239Z,54.17
2018-03-26T08:42:54.676Z,53.68
2018-03-26T08:45:22.225Z,52.79
2018-03-26T08:47:49.651Z,52.36
2018-03-26T08:50:17.277Z,51.46
2018-03-26T08:52:44.668Z,51.98
2018-03-26T08:55:12.130Z,51.78
2018-03-26T08:57:39.589Z,51.64
2018-03-26T09:00:07.263Z,51.62
2018-03-26T09:02:34.785Z,51.92
2018-03-26T09:05:02.233Z,51.76
2018-03-26T09:07:29.757Z,51.88
2018-03-26T09:09:57.262Z,49.84
2018-03-26T09:12:25.395Z,47.15
2018-03-26T09:14:52.908Z,45.88
2018-03-26T09:17:20.374Z,45.10
2018-03-26T09:19:48.185Z,44.63
2018-03-26T09:22:15.664Z,44.82
2018-03-26T09:24:43.112Z,45.67
2018-03-26T09:27:10.584Z,43.38
2018-03-26T09:29:38.081Z,38.13
2018-03-26T09:32:05.837Z,35.92
2018-03-26T09:34:33.369Z,35.95
2018-03-26T09:37:00.810Z,37.28
2018-03-26T09:39:28.282Z,38.77
2018-03-26T09:41:55.810Z,41.29
2018-03-26T09:44:23.382Z,40.41
2018-03-26T09:46:50.844Z,42.64
2018-03-26T09:49:18.303Z,42.69
2018-03-26T09:51:45.805Z,41.73
2018-03-26T09:54:13.267Z,41.17
2018-03-26T09:56:40.707Z,41.25
2018-03-26T09:59:08.295Z,41.36
2018-03-26T10:01:41.621Z,41.55
2018-03-26T10:04:09.091Z,41.55
2018-03-26T10:06:36.664Z,42.40
2018-03-26T10:09:04.894Z,43.28
2018-03-26T10:11:33.063Z,43.18
2018-03-26T10:14:00.592Z,42.63
2018-03-26T10:16:28.129Z,43.21
2018-03-26T10:18:55.568Z,44.22
2018-03-26T10:21:23.161Z,44.15
2018-03-26T10:23:50.698Z,44.29
2018-03-26T10:26:18.270Z,45.04
2018-03-26T10:28:45.710Z,44.57
2018-03-26T10:31:13.237Z,43.97
2018-03-26T10:33:40.598Z,43.87
2018-03-26T10:36:08.067Z,43.94
2018-03-26T10:38:35.516Z,43.71
2018-03-26T10:41:02.945Z,43.84
2018-03-26T10:43:30.424Z,43.23
2018-03-26T10:45:57.956Z,45.67
2018-03-26T10:48:25.390Z,45.29
2018-03-26T10:50:52.890Z,44.71
2018-03-26T10:53:20.428Z,45.32
2018-03-26T10:55:47.853Z,44.86
2018-03-26T10:58:15.329Z,44.32
2018-03-26T11:00:42.855Z,44.99
2018-03-26T11:03:10.316Z,44.36
2018-03-26T11:05:37.778Z,44.09
2018-03-26T11:08:05.242Z,43.18
2018-03-26T11:10:32.715Z,43.41
2018-03-26T11:13:00.134Z,43.48
2018-03-26T11:15:27.695Z,42.96
2018-03-26T11:17:55.179Z,43.64
2018-03-26T11:20:22.649Z,43.27
2018-03-26T11:22:50.113Z,42.38
2018-03-26T11:25:17.666Z,44.02
2018-03-26T11:27:45.135Z,43.90
2018-03-26T11:30:13.058Z,43.58
2018-03-26T11:32:40.573Z,43.47
2018-03-26T11:35:08.290Z,43.20
2018-03-26T11:37:35.792Z,43.20
2018-03-26T11:40:03.382Z,42.96
2018-03-26T11:42:30.924Z,42.85
2018-03-26T11:44:58.429Z,42.36
2018-03-26T11:47:26.085Z,43.08
2018-03-26T11:49:53.527Z,43.12
2018-03-26T11:52:21.589Z,43.17
2018-03-26T11:54:49.330Z,43.15
2018-03-26T11:57:16.814Z,42.75
2018-03-26T11:59:44.288Z,42.89
2018-03-26T12:02:11.889Z,43.23
2018-03-26T12:04:39.405Z,43.41
2018-03-26T12:07:06.884Z,42.71
2018-03-26T12:09:34.365Z,42.87
2018-03-26T12:12:01.910Z,42.60
2018-03-26T12:14:29.447Z,41.09
2018-03-26T12:16:56.897Z,41.25
2018-03-26T12:19:25.336Z,41.13
2018-03-26T12:21:52.809Z,41.02
2018-03-26T12:24:32.175Z,40.76
2018-03-26T12:26:59.628Z,40.43
2018-03-26T12:29:39.190Z,39.82
2018-03-26T12:32:06.994Z,39.04
2018-03-26T12:34:46.346Z,39.93
2018-03-26T12:37:13.803Z,40.01
2018-03-26T12:39:41.279Z,39.55
2018-03-26T12:42:08.767Z,39.53
2018-03-26T12:44:48.207Z,38.93
2018-03-26T12:47:15.648Z,38.52
2018-03-26T12:49:43.124Z,38.07
2018-03-26T12:52:22.378Z,36.92
2018-03-26T12:54:49.894Z,38.33
2018-03-26T13:00:17.729Z,37.09
2018-03-26T13:02:45.474Z,37.26
2018-03-26T13:05:12.961Z,37.90
2018-03-26T13:07:40.521Z,37.35
2018-03-26T13:10:07.999Z,36.96
2018-03-26T13:12:36.051Z,37.19
2018-03-26T13:15:03.670Z,37.39
2018-03-26T13:17:31.273Z,35.45
2018-03-26T13:19:58.889Z,36.42
2018-03-26T13:22:26.440Z,36.29
2018-03-26T13:24:54.481Z,35.53
2018-03-26T13:27:21.975Z,36.27
2018-03-26T13:29:49.451Z,36.34
2018-03-26T13:32:16.946Z,37.21
2018-03-26T13:34:44.414Z,38.26
2018-03-26T13:37:11.891Z,39.62
2018-03-26T13:39:39.348Z,40.00
2018-03-26T13:42:07.284Z,40.36
2018-03-26T13:44:34.753Z,39.24
2018-03-26T13:47:02.259Z,39.51
2018-03-26T13:49:29.857Z,40.25
2018-03-26T13:51:57.332Z,39.92
2018-03-26T13:54:24.819Z,39.64
2018-03-26T13:56:52.753Z,39.15
2018-03-26T13:59:20.302Z,39.54
2018-03-26T14:01:47.732Z,40.18
2018-03-26T14:04:15.532Z,40.05
2018-03-26T14:06:42.959Z,39.81
2018-03-26T14:09:22.064Z,40.64
2018-03-26T14:12:01.352Z,39.62
2018-03-26T14:14:40.717Z,39.40
2018-03-26T14:17:19.699Z,40.47
2018-03-26T14:19:47.176Z,40.82
2018-03-26T14:22:14.641Z,41.05
2018-03-26T14:24:42.112Z,42.01
2018-03-26T14:27:09.548Z,42.77
2018-03-26T14:29:37.038Z,43.28
2018-03-26T14:32:04.472Z,43.16
2018-03-26T14:34:32.037Z,43.66
2018-03-26T14:37:00.094Z,44.31
2018-03-26T14:39:27.554Z,44.04
2018-03-26T14:41:55.083Z,43.87
2018-03-26T14:44:22.657Z,43.91
2018-03-26T14:46:50.393Z,45.15
2018-03-26T14:49:17.910Z,44.79
2018-03-26T14:51:45.531Z,46.24
2018-03-26T14:54:12.986Z,45.63
2018-03-26T14:56:40.434Z,46.16
2018-03-26T14:59:07.926Z,45.58
2018-03-26T15:01:35.372Z,46.63
2018-03-26T15:04:02.834Z,46.74
2018-03-26T15:06:30.265Z,46.83
2018-03-26T15:08:57.780Z,46.49
2018-03-26T15:11:25.221Z,46.82
2018-03-26T15:13:52.683Z,46.67
